METAR AND TAF INFORMATION
METAR FOR TFFR
ADDS - METARS form results

(0349 UTC 14 December 2018)
Data provider http://aviationweather.gov/metar/data/
 
METAR text: TFFR 140330Z AUTO 09005KT 9999 FEW056 BKN076 BKN088 25/22 Q1018
Conditions at: TFFR (LE RAIZET , GP) observed 0330 UTC 14 December 2018
Temperature: 25.0°C (77°F)
Dewpoint: 22.0°C (72°F) [RH = 83%]
Pressure (altimeter): 30.06 inches Hg (1018.0 mb)
Winds: from the E (90 degrees) at 6 MPH (5 knots; 2.6 m/s)
Visibility: 6 or more miles (10+ km)
Ceiling: 7600 feet AGL
Clouds: few clouds at 5600 feet AGL
broken clouds at 7600 feet AGL
broken clouds at 8800 feet AGL
Weather: no significant weather observed at this time

METAR text: TFFR 140300Z AUTO 09007KT CAVOK 24/22 Q1018
Conditions at: TFFR (LE RAIZET , GP) observed 0300 UTC 14 December 2018
Temperature: 24.0°C (75°F)
Dewpoint: 22.0°C (72°F) [RH = 89%]
Pressure (altimeter): 30.06 inches Hg (1018.0 mb)
Winds: from the E (90 degrees) at 8 MPH (7 knots; 3.6 m/s)
Visibility: 6 or more miles (10+ km)
Ceiling: ceiling and visibility are OK
Clouds: unknown
Weather: no significant weather observed at this time

 AIRPORT MAP

 RUNWAY INFORMATION
Runway 12 Runway length 11499 ft Runway width 148 ft
Runway elevation 5 ft Runway displaced threshold 1312 ft Runway heading 101
Runway 30 Runway length 11499 ft Runway width 148 ft
Runway elevation 32 ft Runway displaced threshold 820 ft Runway heading 281

 AIRPORT FREQUENCIES
Type APP Name RAIZET APP Frequency 121.3 MHZ
Type ATIS Name ATIS Frequency 127.6 MHZ
Type GND Name GND Frequency 121.85 MHZ
Type TWR Name RAIZET TWR Frequency 118.4 MHZ

 AIRPORT NEAR NAVIGATION AIDS
Type VOR-DME Name Pointe A Pitre Frequency 112900 KHZ
Type NDB Name Pointe A Pitre Frequency 385 KHZ